sensor_id;sensor_type;location;lat;lon;timestamp;temperature;humidity
4010;DHT22;2019;48.200;11.548;2022-10-16T00:00:42;17.50;79.80
4010;DHT22;2019;48.200;11.548;2022-10-16T00:03:08;17.50;80.20
4010;DHT22;2019;48.200;11.548;2022-10-16T00:05:42;17.50;80.50
4010;DHT22;2019;48.200;11.548;2022-10-16T00:08:09;17.50;80.90
4010;DHT22;2019;48.200;11.548;2022-10-16T00:10:35;17.50;81.00
4010;DHT22;2019;48.200;11.548;2022-10-16T00:13:01;17.50;81.20
4010;DHT22;2019;48.200;11.548;2022-10-16T00:15:27;17.50;82.00
4010;DHT22;2019;48.200;11.548;2022-10-16T00:17:52;17.50;81.50
4010;DHT22;2019;48.200;11.548;2022-10-16T00:20:18;17.40;81.50
4010;DHT22;2019;48.200;11.548;2022-10-16T00:22:43;17.40;81.70
4010;DHT22;2019;48.200;11.548;2022-10-16T00:25:09;17.40;81.70
4010;DHT22;2019;48.200;11.548;2022-10-16T00:27:35;17.40;81.80
4010;DHT22;2019;48.200;11.548;2022-10-16T00:30:01;17.40;81.90
4010;DHT22;2019;48.200;11.548;2022-10-16T00:32:26;17.40;82.00
4010;DHT22;2019;48.200;11.548;2022-10-16T00:34:52;17.40;82.00
4010;DHT22;2019;48.200;11.548;2022-10-16T00:37:20;17.40;82.00
4010;DHT22;2019;48.200;11.548;2022-10-16T00:39:46;17.40;82.10
4010;DHT22;2019;48.200;11.548;2022-10-16T00:42:16;17.40;82.00
4010;DHT22;2019;48.200;11.548;2022-10-16T00:47:21;17.40;82.10
4010;DHT22;2019;48.200;11.548;2022-10-16T00:49:50;17.40;82.20
4010;DHT22;2019;48.200;11.548;2022-10-16T00:52:17;17.40;82.30
4010;DHT22;2019;48.200;11.548;2022-10-16T00:54:43;17.30;82.20
4010;DHT22;2019;48.200;11.548;2022-10-16T00:57:09;17.30;82.40
4010;DHT22;2019;48.200;11.548;2022-10-16T00:59:39;17.30;82.50
4010;DHT22;2019;48.200;11.548;2022-10-16T01:02:07;17.30;82.70
4010;DHT22;2019;48.200;11.548;2022-10-16T01:04:49;17.30;82.70
4010;DHT22;2019;48.200;11.548;2022-10-16T01:10:38;17.30;82.90
4010;DHT22;2019;48.200;11.548;2022-10-16T01:13:11;17.30;83.00
4010;DHT22;2019;48.200;11.548;2022-10-16T01:18:21;17.30;83.00
4010;DHT22;2019;48.200;11.548;2022-10-16T01:20:54;17.30;82.90
4010;DHT22;2019;48.200;11.548;2022-10-16T01:32:42;17.30;82.70
4010;DHT22;2019;48.200;11.548;2022-10-16T01:38:00;17.20;82.60
4010;DHT22;2019;48.200;11.548;2022-10-16T01:40:28;17.20;82.70
4010;DHT22;2019;48.200;11.548;2022-10-16T01:43:08;17.20;82.70
4010;DHT22;2019;48.200;11.548;2022-10-16T01:45:35;17.20;82.90
4010;DHT22;2019;48.200;11.548;2022-10-16T01:48:02;17.10;83.00
4010;DHT22;2019;48.200;11.548;2022-10-16T01:50:33;17.10;83.10
4010;DHT22;2019;48.200;11.548;2022-10-16T01:53:02;17.10;83.30
4010;DHT22;2019;48.200;11.548;2022-10-16T01:55:32;17.10;83.30
4010;DHT22;2019;48.200;11.548;2022-10-16T01:58:00;17.10;83.30
4010;DHT22;2019;48.200;11.548;2022-10-16T02:00:29;17.00;83.30
4010;DHT22;2019;48.200;11.548;2022-10-16T02:02:58;17.10;83.50
4010;DHT22;2019;48.200;11.548;2022-10-16T02:05:30;17.10;83.50
4010;DHT22;2019;48.200;11.548;2022-10-16T02:07:57;17.10;83.50
4010;DHT22;2019;48.200;11.548;2022-10-16T02:10:24;17.10;83.40
4010;DHT22;2019;48.200;11.548;2022-10-16T02:12:56;17.10;83.30
4010;DHT22;2019;48.200;11.548;2022-10-16T02:15:23;17.10;83.30
4010;DHT22;2019;48.200;11.548;2022-10-16T02:17:48;17.10;83.20
4010;DHT22;2019;48.200;11.548;2022-10-16T02:20:14;17.10;83.10
4010;DHT22;2019;48.200;11.548;2022-10-16T02:22:46;17.10;83.00
4010;DHT22;2019;48.200;11.548;2022-10-16T02:25:18;17.10;82.90
4010;DHT22;2019;48.200;11.548;2022-10-16T02:30:51;17.10;82.80
4010;DHT22;2019;48.200;11.548;2022-10-16T02:33:19;17.10;82.80
4010;DHT22;2019;48.200;11.548;2022-10-16T02:35:47;17.10;82.80
4010;DHT22;2019;48.200;11.548;2022-10-16T02:38:15;17.10;82.70
4010;DHT22;2019;48.200;11.548;2022-10-16T02:40:41;17.00;82.70
4010;DHT22;2019;48.200;11.548;2022-10-16T02:43:08;17.00;82.60
4010;DHT22;2019;48.200;11.548;2022-10-16T02:45:34;17.00;82.60
4010;DHT22;2019;48.200;11.548;2022-10-16T02:48:00;17.00;82.60
4010;DHT22;2019;48.200;11.548;2022-10-16T02:50:26;17.00;82.90
4010;DHT22;2019;48.200;11.548;2022-10-16T02:52:51;17.00;82.50
4010;DHT22;2019;48.200;11.548;2022-10-16T02:55:17;17.00;82.40
4010;DHT22;2019;48.200;11.548;2022-10-16T02:57:43;17.00;82.40
4010;DHT22;2019;48.200;11.548;2022-10-16T03:00:14;17.00;82.40
4010;DHT22;2019;48.200;11.548;2022-10-16T03:02:40;17.00;82.40
4010;DHT22;2019;48.200;11.548;2022-10-16T03:05:06;17.00;82.30
4010;DHT22;2019;48.200;11.548;2022-10-16T03:07:32;16.90;82.20
4010;DHT22;2019;48.200;11.548;2022-10-16T03:09:57;16.90;82.30
4010;DHT22;2019;48.200;11.548;2022-10-16T03:12:26;16.90;82.30
4010;DHT22;2019;48.200;11.548;2022-10-16T03:14:52;16.90;82.40
4010;DHT22;2019;48.200;11.548;2022-10-16T03:17:18;16.90;82.40
4010;DHT22;2019;48.200;11.548;2022-10-16T03:19:43;16.90;82.30
4010;DHT22;2019;48.200;11.548;2022-10-16T03:22:09;16.80;82.20
4010;DHT22;2019;48.200;11.548;2022-10-16T03:24:34;16.90;82.20
4010;DHT22;2019;48.200;11.548;2022-10-16T03:27:00;16.80;82.10
4010;DHT22;2019;48.200;11.548;2022-10-16T03:29:26;16.80;82.10
4010;DHT22;2019;48.200;11.548;2022-10-16T03:31:53;16.80;82.10
4010;DHT22;2019;48.200;11.548;2022-10-16T03:34:18;16.80;82.20
4010;DHT22;2019;48.200;11.548;2022-10-16T03:36:44;16.80;82.30
4010;DHT22;2019;48.200;11.548;2022-10-16T03:39:09;16.80;82.30
4010;DHT22;2019;48.200;11.548;2022-10-16T03:41:35;16.80;82.40
4010;DHT22;2019;48.200;11.548;2022-10-16T03:44:00;16.80;82.40
4010;DHT22;2019;48.200;11.548;2022-10-16T03:46:26;16.80;82.40
4010;DHT22;2019;48.200;11.548;2022-10-16T03:48:52;16.80;82.50
4010;DHT22;2019;48.200;11.548;2022-10-16T03:51:18;16.80;82.50
4010;DHT22;2019;48.200;11.548;2022-10-16T03:53:43;16.80;82.50
4010;DHT22;2019;48.200;11.548;2022-10-16T03:56:09;16.80;82.50
4010;DHT22;2019;48.200;11.548;2022-10-16T03:58:34;16.90;82.60
4010;DHT22;2019;48.200;11.548;2022-10-16T04:01:00;16.90;82.60
4010;DHT22;2019;48.200;11.548;2022-10-16T04:03:25;16.90;82.60
4010;DHT22;2019;48.200;11.548;2022-10-16T04:05:51;16.90;82.70
4010;DHT22;2019;48.200;11.548;2022-10-16T04:08:17;16.90;82.60
4010;DHT22;2019;48.200;11.548;2022-10-16T04:10:43;16.90;82.60
4010;DHT22;2019;48.200;11.548;2022-10-16T04:13:09;17.00;82.60
4010;DHT22;2019;48.200;11.548;2022-10-16T04:15:35;16.90;82.50
4010;DHT22;2019;48.200;11.548;2022-10-16T04:18:00;17.00;82.60
4010;DHT22;2019;48.200;11.548;2022-10-16T04:20:26;17.00;82.60
4010;DHT22;2019;48.200;11.548;2022-10-16T04:22:52;17.00;82.40
4010;DHT22;2019;48.200;11.548;2022-10-16T04:25:17;17.00;82.50
4010;DHT22;2019;48.200;11.548;2022-10-16T04:27:43;17.00;82.50
4010;DHT22;2019;48.200;11.548;2022-10-16T04:30:10;17.00;82.60
4010;DHT22;2019;48.200;11.548;2022-10-16T04:32:36;17.00;82.70
4010;DHT22;2019;48.200;11.548;2022-10-16T04:35:02;17.00;82.60
4010;DHT22;2019;48.200;11.548;2022-10-16T04:37:28;17.00;82.50
4010;DHT22;2019;48.200;11.548;2022-10-16T04:39:54;17.00;82.60
4010;DHT22;2019;48.200;11.548;2022-10-16T04:42:20;17.00;82.60
4010;DHT22;2019;48.200;11.548;2022-10-16T04:44:46;17.00;82.60
4010;DHT22;2019;48.200;11.548;2022-10-16T04:47:12;17.00;82.60
4010;DHT22;2019;48.200;11.548;2022-10-16T04:49:38;17.00;82.70
4010;DHT22;2019;48.200;11.548;2022-10-16T04:52:04;17.00;82.70
4010;DHT22;2019;48.200;11.548;2022-10-16T04:54:30;17.00;82.80
4010;DHT22;2019;48.200;11.548;2022-10-16T04:56:56;17.00;82.70
4010;DHT22;2019;48.200;11.548;2022-10-16T04:59:22;17.00;82.70
4010;DHT22;2019;48.200;11.548;2022-10-16T05:01:48;17.00;82.70
4010;DHT22;2019;48.200;11.548;2022-10-16T05:04:14;17.00;82.70
4010;DHT22;2019;48.200;11.548;2022-10-16T05:06:40;17.00;82.70
4010;DHT22;2019;48.200;11.548;2022-10-16T05:09:06;17.00;82.70
4010;DHT22;2019;48.200;11.548;2022-10-16T05:11:33;17.00;82.70
4010;DHT22;2019;48.200;11.548;2022-10-16T05:13:58;17.00;82.60
4010;DHT22;2019;48.200;11.548;2022-10-16T05:16:24;17.00;82.60
4010;DHT22;2019;48.200;11.548;2022-10-16T05:18:51;17.00;82.70
4010;DHT22;2019;48.200;11.548;2022-10-16T05:21:17;17.00;82.70
4010;DHT22;2019;48.200;11.548;2022-10-16T05:23:43;17.00;82.70
4010;DHT22;2019;48.200;11.548;2022-10-16T05:26:08;17.00;82.80
4010;DHT22;2019;48.200;11.548;2022-10-16T05:28:34;17.10;83.00
4010;DHT22;2019;48.200;11.548;2022-10-16T05:31:07;17.00;82.90
4010;DHT22;2019;48.200;11.548;2022-10-16T05:33:33;17.00;83.10
4010;DHT22;2019;48.200;11.548;2022-10-16T05:36:07;17.00;82.90
4010;DHT22;2019;48.200;11.548;2022-10-16T05:38:34;17.00;82.90
4010;DHT22;2019;48.200;11.548;2022-10-16T05:41:00;17.00;82.90
4010;DHT22;2019;48.200;11.548;2022-10-16T05:43:27;17.00;83.00
4010;DHT22;2019;48.200;11.548;2022-10-16T05:45:57;17.00;83.10
4010;DHT22;2019;48.200;11.548;2022-10-16T05:48:23;17.00;83.10
4010;DHT22;2019;48.200;11.548;2022-10-16T05:50:59;17.00;83.10
4010;DHT22;2019;48.200;11.548;2022-10-16T05:53:27;17.00;83.10
4010;DHT22;2019;48.200;11.548;2022-10-16T05:55:54;17.00;83.20
4010;DHT22;2019;48.200;11.548;2022-10-16T05:58:20;17.00;83.10
4010;DHT22;2019;48.200;11.548;2022-10-16T06:00:59;17.00;83.10
4010;DHT22;2019;48.200;11.548;2022-10-16T06:03:25;17.00;83.10
4010;DHT22;2019;48.200;11.548;2022-10-16T06:05:51;17.00;83.00
4010;DHT22;2019;48.200;11.548;2022-10-16T06:08:18;17.00;83.00
4010;DHT22;2019;48.200;11.548;2022-10-16T06:10:46;17.00;83.10
4010;DHT22;2019;48.200;11.548;2022-10-16T06:13:13;17.00;83.10
4010;DHT22;2019;48.200;11.548;2022-10-16T06:15:40;17.00;83.00
4010;DHT22;2019;48.200;11.548;2022-10-16T06:18:09;17.00;82.90
4010;DHT22;2019;48.200;11.548;2022-10-16T06:20:35;17.00;82.90
4010;DHT22;2019;48.200;11.548;2022-10-16T06:23:01;17.00;82.90
4010;DHT22;2019;48.200;11.548;2022-10-16T06:25:27;17.00;82.80
4010;DHT22;2019;48.200;11.548;2022-10-16T06:27:53;17.00;82.80
4010;DHT22;2019;48.200;11.548;2022-10-16T06:30:18;17.00;82.80
4010;DHT22;2019;48.200;11.548;2022-10-16T06:32:44;17.00;82.70
4010;DHT22;2019;48.200;11.548;2022-10-16T06:35:09;17.00;82.70
4010;DHT22;2019;48.200;11.548;2022-10-16T06:37:35;17.00;82.60
4010;DHT22;2019;48.200;11.548;2022-10-16T06:40:00;17.00;82.60
4010;DHT22;2019;48.200;11.548;2022-10-16T06:42:29;17.00;82.50
4010;DHT22;2019;48.200;11.548;2022-10-16T06:44:55;17.10;82.60
4010;DHT22;2019;48.200;11.548;2022-10-16T06:47:20;17.00;82.50
4010;DHT22;2019;48.200;11.548;2022-10-16T06:49:46;17.00;82.40
4010;DHT22;2019;48.200;11.548;2022-10-16T06:52:12;17.00;82.50
4010;DHT22;2019;48.200;11.548;2022-10-16T06:54:37;17.00;82.40
4010;DHT22;2019;48.200;11.548;2022-10-16T06:57:03;17.00;82.30
4010;DHT22;2019;48.200;11.548;2022-10-16T06:59:28;17.10;82.40
4010;DHT22;2019;48.200;11.548;2022-10-16T07:01:54;17.10;82.40
4010;DHT22;2019;48.200;11.548;2022-10-16T07:04:19;17.10;82.40
4010;DHT22;2019;48.200;11.548;2022-10-16T07:06:45;17.10;82.40
4010;DHT22;2019;48.200;11.548;2022-10-16T07:09:11;17.10;82.40
4010;DHT22;2019;48.200;11.548;2022-10-16T07:11:38;17.20;82.50
4010;DHT22;2019;48.200;11.548;2022-10-16T07:14:05;17.20;82.60
4010;DHT22;2019;48.200;11.548;2022-10-16T07:16:34;17.20;82.70
4010;DHT22;2019;48.200;11.548;2022-10-16T07:19:02;17.20;82.80
4010;DHT22;2019;48.200;11.548;2022-10-16T07:21:30;17.40;83.20
4010;DHT22;2019;48.200;11.548;2022-10-16T07:23:58;17.30;83.10
4010;DHT22;2019;48.200;11.548;2022-10-16T07:26:24;17.40;83.00
4010;DHT22;2019;48.200;11.548;2022-10-16T07:28:50;17.50;83.80
4010;DHT22;2019;48.200;11.548;2022-10-16T07:31:17;17.50;83.60
4010;DHT22;2019;48.200;11.548;2022-10-16T07:33:44;17.60;85.00
4010;DHT22;2019;48.200;11.548;2022-10-16T07:36:11;17.80;85.40
4010;DHT22;2019;48.200;11.548;2022-10-16T07:38:37;17.90;85.00
4010;DHT22;2019;48.200;11.548;2022-10-16T07:41:09;18.20;86.20
4010;DHT22;2019;48.200;11.548;2022-10-16T07:43:34;18.60;85.40
4010;DHT22;2019;48.200;11.548;2022-10-16T07:46:00;18.70;84.00
4010;DHT22;2019;48.200;11.548;2022-10-16T07:48:28;18.80;83.10
4010;DHT22;2019;48.200;11.548;2022-10-16T07:50:58;18.90;82.80
4010;DHT22;2019;48.200;11.548;2022-10-16T07:53:24;19.10;83.30
4010;DHT22;2019;48.200;11.548;2022-10-16T07:55:50;19.40;82.90
4010;DHT22;2019;48.200;11.548;2022-10-16T07:58:16;19.70;82.30
4010;DHT22;2019;48.200;11.548;2022-10-16T08:00:41;20.00;81.40
4010;DHT22;2019;48.200;11.548;2022-10-16T08:03:08;20.30;80.20
4010;DHT22;2019;48.200;11.548;2022-10-16T08:05:34;20.40;78.90
4010;DHT22;2019;48.200;11.548;2022-10-16T08:08:00;20.60;77.70
4010;DHT22;2019;48.200;11.548;2022-10-16T08:10:27;20.60;77.40
4010;DHT22;2019;48.200;11.548;2022-10-16T08:12:53;20.60;76.30
4010;DHT22;2019;48.200;11.548;2022-10-16T08:15:19;20.70;75.70
4010;DHT22;2019;48.200;11.548;2022-10-16T08:17:53;20.80;75.50
4010;DHT22;2019;48.200;11.548;2022-10-16T08:20:19;20.80;75.10
4010;DHT22;2019;48.200;11.548;2022-10-16T08:22:44;20.90;75.00
4010;DHT22;2019;48.200;11.548;2022-10-16T08:25:10;21.00;74.90
4010;DHT22;2019;48.200;11.548;2022-10-16T08:27:35;21.10;75.00
4010;DHT22;2019;48.200;11.548;2022-10-16T08:30:01;21.20;74.20
4010;DHT22;2019;48.200;11.548;2022-10-16T08:32:27;21.30;73.40
4010;DHT22;2019;48.200;11.548;2022-10-16T08:34:52;21.40;73.50
4010;DHT22;2019;48.200;11.548;2022-10-16T08:37:18;21.50;73.00
4010;DHT22;2019;48.200;11.548;2022-10-16T08:39:43;21.60;72.30
4010;DHT22;2019;48.200;11.548;2022-10-16T08:50:42;21.90;70.60
4010;DHT22;2019;48.200;11.548;2022-10-16T08:53:15;22.00;71.10
4010;DHT22;2019;48.200;11.548;2022-10-16T08:55:44;22.10;70.70
4010;DHT22;2019;48.200;11.548;2022-10-16T08:58:17;22.20;70.20
4010;DHT22;2019;48.200;11.548;2022-10-16T09:00:46;22.30;69.40
4010;DHT22;2019;48.200;11.548;2022-10-16T09:03:39;22.40;69.70
4010;DHT22;2019;48.200;11.548;2022-10-16T09:22:45;23.00;67.20
4010;DHT22;2019;48.200;11.548;2022-10-16T09:25:14;23.10;67.20
4010;DHT22;2019;48.200;11.548;2022-10-16T09:27:40;23.20;66.40
4010;DHT22;2019;48.200;11.548;2022-10-16T09:30:15;23.30;65.10
4010;DHT22;2019;48.200;11.548;2022-10-16T09:32:42;23.40;64.30
4010;DHT22;2019;48.200;11.548;2022-10-16T09:35:15;23.40;63.90
4010;DHT22;2019;48.200;11.548;2022-10-16T09:37:44;23.50;63.20
4010;DHT22;2019;48.200;11.548;2022-10-16T09:42:58;23.60;62.00
4010;DHT22;2019;48.200;11.548;2022-10-16T09:45:26;23.70;62.40
4010;DHT22;2019;48.200;11.548;2022-10-16T09:47:53;23.80;62.10
4010;DHT22;2019;48.200;11.548;2022-10-16T09:50:27;23.90;62.00
4010;DHT22;2019;48.200;11.548;2022-10-16T09:53:09;24.00;61.00
4010;DHT22;2019;48.200;11.548;2022-10-16T09:55:36;24.10;61.00
4010;DHT22;2019;48.200;11.548;2022-10-16T09:58:01;24.20;61.20
4010;DHT22;2019;48.200;11.548;2022-10-16T10:00:27;24.40;61.60
4010;DHT22;2019;48.200;11.548;2022-10-16T10:02:54;24.50;61.90
4010;DHT22;2019;48.200;11.548;2022-10-16T10:05:26;24.60;61.20
4010;DHT22;2019;48.200;11.548;2022-10-16T10:08:02;24.80;59.60
4010;DHT22;2019;48.200;11.548;2022-10-16T10:10:33;24.90;58.20
4010;DHT22;2019;48.200;11.548;2022-10-16T10:13:00;24.90;58.60
4010;DHT22;2019;48.200;11.548;2022-10-16T10:15:29;25.00;58.10
4010;DHT22;2019;48.200;11.548;2022-10-16T10:17:58;25.00;57.50
4010;DHT22;2019;48.200;11.548;2022-10-16T10:20:36;25.10;57.80
4010;DHT22;2019;48.200;11.548;2022-10-16T10:23:26;25.20;56.70
4010;DHT22;2019;48.200;11.548;2022-10-16T10:31:08;25.40;55.70
4010;DHT22;2019;48.200;11.548;2022-10-16T10:55:48;26.40;53.50
4010;DHT22;2019;48.200;11.548;2022-10-16T11:01:18;26.60;51.90
4010;DHT22;2019;48.200;11.548;2022-10-16T11:06:33;26.60;51.00
4010;DHT22;2019;48.200;11.548;2022-10-16T11:09:24;26.60;52.20
4010;DHT22;2019;48.200;11.548;2022-10-16T11:11:54;26.80;52.10
4010;DHT22;2019;48.200;11.548;2022-10-16T11:14:33;26.80;51.40
4010;DHT22;2019;48.200;11.548;2022-10-16T11:22:37;27.10;51.20
4010;DHT22;2019;48.200;11.548;2022-10-16T11:25:20;27.20;50.80
4010;DHT22;2019;48.200;11.548;2022-10-16T11:28:15;27.30;51.00
4010;DHT22;2019;48.200;11.548;2022-10-16T11:35:55;27.60;49.20
4010;DHT22;2019;48.200;11.548;2022-10-16T11:41:29;27.70;47.10
4010;DHT22;2019;48.200;11.548;2022-10-16T11:46:38;27.60;48.10
4010;DHT22;2019;48.200;11.548;2022-10-16T11:49:10;27.60;47.60
4010;DHT22;2019;48.200;11.548;2022-10-16T11:51:40;27.80;48.30
4010;DHT22;2019;48.200;11.548;2022-10-16T11:54:32;27.90;46.70
4010;DHT22;2019;48.200;11.548;2022-10-16T11:57:02;28.00;45.60
4010;DHT22;2019;48.200;11.548;2022-10-16T12:02:40;28.10;45.70
4010;DHT22;2019;48.200;11.548;2022-10-16T12:07:59;28.20;45.70
4010;DHT22;2019;48.200;11.548;2022-10-16T12:10:29;28.20;45.70
4010;DHT22;2019;48.200;11.548;2022-10-16T12:12:57;28.20;46.10
4010;DHT22;2019;48.200;11.548;2022-10-16T12:15:24;28.30;46.30
4010;DHT22;2019;48.200;11.548;2022-10-16T12:17:51;28.30;46.30
4010;DHT22;2019;48.200;11.548;2022-10-16T12:22:50;28.50;46.70
4010;DHT22;2019;48.200;11.548;2022-10-16T12:25:25;28.60;46.50
4010;DHT22;2019;48.200;11.548;2022-10-16T12:28:03;28.60;46.40
4010;DHT22;2019;48.200;11.548;2022-10-16T12:30:32;28.60;45.80
4010;DHT22;2019;48.200;11.548;2022-10-16T12:33:24;28.70;46.70
4010;DHT22;2019;48.200;11.548;2022-10-16T12:35:50;28.80;47.30
4010;DHT22;2019;48.200;11.548;2022-10-16T12:38:49;28.90;47.60
4010;DHT22;2019;48.200;11.548;2022-10-16T12:41:28;29.00;45.70
4010;DHT22;2019;48.200;11.548;2022-10-16T12:43:54;29.00;45.40
4010;DHT22;2019;48.200;11.548;2022-10-16T12:46:24;29.00;45.80
4010;DHT22;2019;48.200;11.548;2022-10-16T12:48:50;29.10;46.50
4010;DHT22;2019;48.200;11.548;2022-10-16T12:51:37;29.10;46.90
4010;DHT22;2019;48.200;11.548;2022-10-16T12:54:14;29.20;45.70
4010;DHT22;2019;48.200;11.548;2022-10-16T12:57:16;29.20;46.90
4010;DHT22;2019;48.200;11.548;2022-10-16T13:04:55;29.30;43.40
4010;DHT22;2019;48.200;11.548;2022-10-16T13:19:28;29.60;41.90
4010;DHT22;2019;48.200;11.548;2022-10-16T13:24:48;30.10;43.00
4010;DHT22;2019;48.200;11.548;2022-10-16T13:30:25;30.60;41.10
4010;DHT22;2019;48.200;11.548;2022-10-16T13:35:24;31.20;40.80
4010;DHT22;2019;48.200;11.548;2022-10-16T13:37:51;31.50;41.00
4010;DHT22;2019;48.200;11.548;2022-10-16T13:40:22;31.80;40.20
4010;DHT22;2019;48.200;11.548;2022-10-16T13:42:50;32.20;39.20
4010;DHT22;2019;48.200;11.548;2022-10-16T13:45:21;32.50;39.00
4010;DHT22;2019;48.200;11.548;2022-10-16T13:47:47;32.90;38.60
4010;DHT22;2019;48.200;11.548;2022-10-16T13:50:15;33.40;38.50
4010;DHT22;2019;48.200;11.548;2022-10-16T13:52:42;33.70;37.80
4010;DHT22;2019;48.200;11.548;2022-10-16T13:57:37;34.30;36.30
4010;DHT22;2019;48.200;11.548;2022-10-16T14:00:20;34.50;35.60
4010;DHT22;2019;48.200;11.548;2022-10-16T14:02:51;34.80;35.80
4010;DHT22;2019;48.200;11.548;2022-10-16T14:05:18;35.30;34.90
4010;DHT22;2019;48.200;11.548;2022-10-16T14:07:49;35.60;34.40
4010;DHT22;2019;48.200;11.548;2022-10-16T14:10:25;35.90;33.20
4010;DHT22;2019;48.200;11.548;2022-10-16T14:13:12;36.00;32.90
4010;DHT22;2019;48.200;11.548;2022-10-16T14:15:38;36.00;32.60
4010;DHT22;2019;48.200;11.548;2022-10-16T14:18:05;36.20;32.90
4010;DHT22;2019;48.200;11.548;2022-10-16T14:20:33;36.20;32.60
4010;DHT22;2019;48.200;11.548;2022-10-16T14:23:04;36.30;32.50
4010;DHT22;2019;48.200;11.548;2022-10-16T14:25:31;36.30;32.90
4010;DHT22;2019;48.200;11.548;2022-10-16T14:30:27;36.80;31.90
4010;DHT22;2019;48.200;11.548;2022-10-16T14:38:34;37.10;30.40
4010;DHT22;2019;48.200;11.548;2022-10-16T14:41:01;37.00;30.90
4010;DHT22;2019;48.200;11.548;2022-10-16T14:43:37;36.70;30.60
4010;DHT22;2019;48.200;11.548;2022-10-16T14:46:13;36.30;31.60
4010;DHT22;2019;48.200;11.548;2022-10-16T14:48:44;36.00;31.30
4010;DHT22;2019;48.200;11.548;2022-10-16T14:51:15;35.50;31.60
4010;DHT22;2019;48.200;11.548;2022-10-16T14:53:40;34.90;32.00
4010;DHT22;2019;48.200;11.548;2022-10-16T14:56:08;34.30;32.60
4010;DHT22;2019;48.200;11.548;2022-10-16T14:58:35;33.70;33.20
4010;DHT22;2019;48.200;11.548;2022-10-16T15:01:00;33.20;34.30
4010;DHT22;2019;48.200;11.548;2022-10-16T15:03:26;32.70;34.30
4010;DHT22;2019;48.200;11.548;2022-10-16T15:05:52;32.30;35.20
4010;DHT22;2019;48.200;11.548;2022-10-16T15:08:17;31.90;35.60
4010;DHT22;2019;48.200;11.548;2022-10-16T15:10:44;31.60;36.10
4010;DHT22;2019;48.200;11.548;2022-10-16T15:13:12;31.20;36.90
4010;DHT22;2019;48.200;11.548;2022-10-16T15:15:43;30.80;37.50
4010;DHT22;2019;48.200;11.548;2022-10-16T15:18:10;30.50;38.50
4010;DHT22;2019;48.200;11.548;2022-10-16T15:20:38;30.30;39.40
4010;DHT22;2019;48.200;11.548;2022-10-16T15:23:18;30.10;40.10
4010;DHT22;2019;48.200;11.548;2022-10-16T15:25:50;29.90;40.40
4010;DHT22;2019;48.200;11.548;2022-10-16T15:28:17;29.60;40.90
4010;DHT22;2019;48.200;11.548;2022-10-16T15:30:44;29.40;41.40
4010;DHT22;2019;48.200;11.548;2022-10-16T15:33:15;29.20;42.00
4010;DHT22;2019;48.200;11.548;2022-10-16T15:35:42;28.90;42.50
4010;DHT22;2019;48.200;11.548;2022-10-16T15:38:12;28.70;42.90
4010;DHT22;2019;48.200;11.548;2022-10-16T15:40:38;28.50;43.50
4010;DHT22;2019;48.200;11.548;2022-10-16T15:43:05;28.30;43.80
4010;DHT22;2019;48.200;11.548;2022-10-16T15:45:30;28.10;44.30
4010;DHT22;2019;48.200;11.548;2022-10-16T15:47:56;27.90;44.50
4010;DHT22;2019;48.200;11.548;2022-10-16T15:50:22;27.80;45.00
4010;DHT22;2019;48.200;11.548;2022-10-16T15:52:47;27.60;45.40
4010;DHT22;2019;48.200;11.548;2022-10-16T15:55:14;27.50;45.80
4010;DHT22;2019;48.200;11.548;2022-10-16T15:57:40;27.40;46.00
4010;DHT22;2019;48.200;11.548;2022-10-16T16:00:10;27.30;46.50
4010;DHT22;2019;48.200;11.548;2022-10-16T16:02:37;27.10;46.60
4010;DHT22;2019;48.200;11.548;2022-10-16T16:05:02;27.00;46.90
4010;DHT22;2019;48.200;11.548;2022-10-16T16:07:32;26.90;47.10
4010;DHT22;2019;48.200;11.548;2022-10-16T16:09:57;26.80;47.40
4010;DHT22;2019;48.200;11.548;2022-10-16T16:12:23;26.60;47.60
4010;DHT22;2019;48.200;11.548;2022-10-16T16:14:48;26.50;47.90
4010;DHT22;2019;48.200;11.548;2022-10-16T16:17:14;26.40;48.20
4010;DHT22;2019;48.200;11.548;2022-10-16T16:19:40;26.30;48.40
4010;DHT22;2019;48.200;11.548;2022-10-16T16:22:05;26.20;48.70
4010;DHT22;2019;48.200;11.548;2022-10-16T16:24:31;26.10;49.00
4010;DHT22;2019;48.200;11.548;2022-10-16T16:26:56;25.90;49.20
4010;DHT22;2019;48.200;11.548;2022-10-16T16:29:22;25.80;49.60
4010;DHT22;2019;48.200;11.548;2022-10-16T16:31:48;25.70;49.90
4010;DHT22;2019;48.200;11.548;2022-10-16T16:34:14;25.60;50.10
4010;DHT22;2019;48.200;11.548;2022-10-16T16:36:40;25.50;50.50
4010;DHT22;2019;48.200;11.548;2022-10-16T16:39:06;25.40;51.00
4010;DHT22;2019;48.200;11.548;2022-10-16T16:41:33;25.30;51.20
4010;DHT22;2019;48.200;11.548;2022-10-16T16:44:06;25.20;51.50
4010;DHT22;2019;48.200;11.548;2022-10-16T16:46:33;25.10;52.00
4010;DHT22;2019;48.200;11.548;2022-10-16T16:49:00;25.00;52.20
4010;DHT22;2019;48.200;11.548;2022-10-16T16:51:25;24.80;52.40
4010;DHT22;2019;48.200;11.548;2022-10-16T16:53:53;24.80;52.80
4010;DHT22;2019;48.200;11.548;2022-10-16T16:56:19;24.70;53.00
4010;DHT22;2019;48.200;11.548;2022-10-16T16:58:47;24.60;53.30
4010;DHT22;2019;48.200;11.548;2022-10-16T17:01:13;24.50;53.50
4010;DHT22;2019;48.200;11.548;2022-10-16T17:03:42;24.40;53.80
4010;DHT22;2019;48.200;11.548;2022-10-16T17:06:13;24.40;54.20
4010;DHT22;2019;48.200;11.548;2022-10-16T17:08:40;24.30;54.20
4010;DHT22;2019;48.200;11.548;2022-10-16T17:11:10;24.20;54.50
4010;DHT22;2019;48.200;11.548;2022-10-16T17:13:36;24.10;54.70
4010;DHT22;2019;48.200;11.548;2022-10-16T17:16:04;24.10;55.00
4010;DHT22;2019;48.200;11.548;2022-10-16T17:18:31;24.00;55.10
4010;DHT22;2019;48.200;11.548;2022-10-16T17:21:06;23.90;55.20
4010;DHT22;2019;48.200;11.548;2022-10-16T17:23:32;23.80;55.40
4010;DHT22;2019;48.200;11.548;2022-10-16T17:26:06;23.70;55.50
4010;DHT22;2019;48.200;11.548;2022-10-16T17:28:32;23.70;55.80
4010;DHT22;2019;48.200;11.548;2022-10-16T17:31:10;23.60;55.80
4010;DHT22;2019;48.200;11.548;2022-10-16T17:33:36;23.60;56.80
4010;DHT22;2019;48.200;11.548;2022-10-16T17:36:02;23.50;56.20
4010;DHT22;2019;48.200;11.548;2022-10-16T17:38:27;23.40;56.40
4010;DHT22;2019;48.200;11.548;2022-10-16T17:40:53;23.40;56.70
4010;DHT22;2019;48.200;11.548;2022-10-16T17:43:18;23.30;56.80
4010;DHT22;2019;48.200;11.548;2022-10-16T17:45:44;23.30;57.00
4010;DHT22;2019;48.200;11.548;2022-10-16T17:48:09;23.20;57.10
4010;DHT22;2019;48.200;11.548;2022-10-16T17:50:39;23.20;57.30
4010;DHT22;2019;48.200;11.548;2022-10-16T17:53:05;23.10;57.50
4010;DHT22;2019;48.200;11.548;2022-10-16T17:55:31;23.10;57.70
4010;DHT22;2019;48.200;11.548;2022-10-16T17:57:56;23.00;57.80
4010;DHT22;2019;48.200;11.548;2022-10-16T18:00:22;23.00;58.00
4010;DHT22;2019;48.200;11.548;2022-10-16T18:02:48;22.90;58.10
4010;DHT22;2019;48.200;11.548;2022-10-16T18:05:14;22.90;58.20
4010;DHT22;2019;48.200;11.548;2022-10-16T18:07:40;22.80;58.30
4010;DHT22;2019;48.200;11.548;2022-10-16T18:10:06;22.80;58.40
4010;DHT22;2019;48.200;11.548;2022-10-16T18:12:34;22.70;58.40
4010;DHT22;2019;48.200;11.548;2022-10-16T18:14:59;22.70;58.70
4010;DHT22;2019;48.200;11.548;2022-10-16T18:17:25;22.60;58.70